sensor_id;sensor_type;location;lat;lon;timestamp;temperature;humidity
74968;SHT30;63523;51.880;12.630;2023-08-07T00:00:15;16.97;77.37
74968;SHT30;63523;51.880;12.630;2023-08-07T00:02:40;16.85;77.08
74968;SHT30;63523;51.880;12.630;2023-08-07T00:05:06;16.90;76.50
74968;SHT30;63523;51.880;12.630;2023-08-07T00:07:31;16.90;76.29
74968;SHT30;63523;51.880;12.630;2023-08-07T00:09:56;16.90;76.79
74968;SHT30;63523;51.880;12.630;2023-08-07T00:12:22;16.84;76.75
74968;SHT30;63523;51.880;12.630;2023-08-07T00:14:50;16.88;76.63
74968;SHT30;63523;51.880;12.630;2023-08-07T00:17:16;16.85;75.92
74968;SHT30;63523;51.880;12.630;2023-08-07T00:19:41;16.79;75.59
74968;SHT30;63523;51.880;12.630;2023-08-07T00:22:07;16.76;75.75
74968;SHT30;63523;51.880;12.630;2023-08-07T00:24:32;16.74;75.83
74968;SHT30;63523;51.880;12.630;2023-08-07T00:26:57;16.69;76.08
74968;SHT30;63523;51.880;12.630;2023-08-07T00:29:23;16.62;76.57
74968;SHT30;63523;51.880;12.630;2023-08-07T00:31:48;16.55;77.17
74968;SHT30;63523;51.880;12.630;2023-08-07T00:34:13;16.49;77.62
74968;SHT30;63523;51.880;12.630;2023-08-07T00:36:38;16.39;78.06
74968;SHT30;63523;51.880;12.630;2023-08-07T00:39:04;16.29;78.77
74968;SHT30;63523;51.880;12.630;2023-08-07T00:41:29;16.35;78.69
74968;SHT30;63523;51.880;12.630;2023-08-07T00:43:54;16.29;79.02
74968;SHT30;63523;51.880;12.630;2023-08-07T00:46:20;16.21;79.41
74968;SHT30;63523;51.880;12.630;2023-08-07T00:48:45;16.18;79.55
74968;SHT30;63523;51.880;12.630;2023-08-07T00:51:11;16.15;79.91
74968;SHT30;63523;51.880;12.630;2023-08-07T00:53:38;16.04;80.30
74968;SHT30;63523;51.880;12.630;2023-08-07T00:56:04;15.96;80.82
74968;SHT30;63523;51.880;12.630;2023-08-07T00:58:29;15.93;80.97
74968;SHT30;63523;51.880;12.630;2023-08-07T01:00:55;15.87;81.40
74968;SHT30;63523;51.880;12.630;2023-08-07T01:03:21;15.80;81.41
74968;SHT30;63523;51.880;12.630;2023-08-07T01:05:46;15.77;81.73
74968;SHT30;63523;51.880;12.630;2023-08-07T01:08:11;15.74;81.77
74968;SHT30;63523;51.880;12.630;2023-08-07T01:11:10;15.71;81.84
74968;SHT30;63523;51.880;12.630;2023-08-07T01:13:49;15.71;81.83
74968;SHT30;63523;51.880;12.630;2023-08-07T01:16:21;15.69;81.89
74968;SHT30;63523;51.880;12.630;2023-08-07T01:18:49;15.69;81.93
74968;SHT30;63523;51.880;12.630;2023-08-07T01:21:18;15.67;81.80
74968;SHT30;63523;51.880;12.630;2023-08-07T01:23:48;15.63;81.40
74968;SHT30;63523;51.880;12.630;2023-08-07T01:26:15;15.63;81.34
74968;SHT30;63523;51.880;12.630;2023-08-07T01:28:46;15.57;81.56
74968;SHT30;63523;51.880;12.630;2023-08-07T01:31:16;15.53;81.53
74968;SHT30;63523;51.880;12.630;2023-08-07T01:33:54;15.48;81.76
74968;SHT30;63523;51.880;12.630;2023-08-07T01:36:23;15.43;81.92
74968;SHT30;63523;51.880;12.630;2023-08-07T01:38:50;15.43;81.73
74968;SHT30;63523;51.880;12.630;2023-08-07T01:41:16;15.39;81.72
74968;SHT30;63523;51.880;12.630;2023-08-07T01:43:41;15.42;81.91
74968;SHT30;63523;51.880;12.630;2023-08-07T01:46:06;15.42;81.57
74968;SHT30;63523;51.880;12.630;2023-08-07T01:48:32;15.42;81.74
74968;SHT30;63523;51.880;12.630;2023-08-07T01:50:57;15.42;81.65
74968;SHT30;63523;51.880;12.630;2023-08-07T01:53:22;15.45;81.65
74968;SHT30;63523;51.880;12.630;2023-08-07T01:55:48;15.42;81.79
74968;SHT30;63523;51.880;12.630;2023-08-07T01:58:13;15.38;82.07
74968;SHT30;63523;51.880;12.630;2023-08-07T02:00:38;15.43;82.28
74968;SHT30;63523;51.880;12.630;2023-08-07T02:03:03;15.45;82.58
74968;SHT30;63523;51.880;12.630;2023-08-07T02:05:29;15.40;83.12
74968;SHT30;63523;51.880;12.630;2023-08-07T02:07:54;15.45;83.34
74968;SHT30;63523;51.880;12.630;2023-08-07T02:10:22;15.48;83.32
74968;SHT30;63523;51.880;12.630;2023-08-07T02:12:48;15.52;83.57
74968;SHT30;63523;51.880;12.630;2023-08-07T02:15:13;15.59;83.61
74968;SHT30;63523;51.880;12.630;2023-08-07T02:17:38;15.62;83.64
74968;SHT30;63523;51.880;12.630;2023-08-07T02:20:06;15.69;83.28
74968;SHT30;63523;51.880;12.630;2023-08-07T02:22:32;15.76;83.37
74968;SHT30;63523;51.880;12.630;2023-08-07T02:24:57;15.76;83.50
74968;SHT30;63523;51.880;12.630;2023-08-07T02:27:23;15.79;83.55
74968;SHT30;63523;51.880;12.630;2023-08-07T02:29:48;15.79;83.58
74968;SHT30;63523;51.880;12.630;2023-08-07T02:32:13;15.82;83.54
74968;SHT30;63523;51.880;12.630;2023-08-07T02:34:39;15.91;83.31
74968;SHT30;63523;51.880;12.630;2023-08-07T02:37:04;15.84;83.55
74968;SHT30;63523;51.880;12.630;2023-08-07T02:39:29;15.86;83.83
74968;SHT30;63523;51.880;12.630;2023-08-07T02:41:55;15.91;83.59
74968;SHT30;63523;51.880;12.630;2023-08-07T02:44:20;15.89;83.68
74968;SHT30;63523;51.880;12.630;2023-08-07T02:46:46;15.90;83.89
74968;SHT30;63523;51.880;12.630;2023-08-07T02:49:11;15.93;83.89
74968;SHT30;63523;51.880;12.630;2023-08-07T02:51:36;15.91;83.75
74968;SHT30;63523;51.880;12.630;2023-08-07T02:54:01;15.93;83.32
74968;SHT30;63523;51.880;12.630;2023-08-07T02:56:27;15.90;83.67
74968;SHT30;63523;51.880;12.630;2023-08-07T02:58:52;15.94;83.14
74968;SHT30;63523;51.880;12.630;2023-08-07T03:01:17;15.94;83.12
74968;SHT30;63523;51.880;12.630;2023-08-07T03:03:43;15.97;83.20
74968;SHT30;63523;51.880;12.630;2023-08-07T03:06:08;16.04;82.05
74968;SHT30;63523;51.880;12.630;2023-08-07T03:08:33;15.96;82.74
74968;SHT30;63523;51.880;12.630;2023-08-07T03:10:58;15.98;82.93
74968;SHT30;63523;51.880;12.630;2023-08-07T03:13:25;15.97;82.95
74968;SHT30;63523;51.880;12.630;2023-08-07T03:15:53;15.96;82.99
74968;SHT30;63523;51.880;12.630;2023-08-07T03:18:23;15.91;83.03
74968;SHT30;63523;51.880;12.630;2023-08-07T03:20:48;15.87;83.25
74968;SHT30;63523;51.880;12.630;2023-08-07T03:23:13;15.83;83.49
74968;SHT30;63523;51.880;12.630;2023-08-07T03:25:39;15.83;83.54
74968;SHT30;63523;51.880;12.630;2023-08-07T03:28:04;15.84;83.72
74968;SHT30;63523;51.880;12.630;2023-08-07T03:30:29;15.84;83.78
74968;SHT30;63523;51.880;12.630;2023-08-07T03:32:54;15.79;83.70
74968;SHT30;63523;51.880;12.630;2023-08-07T03:35:20;15.83;83.68
74968;SHT30;63523;51.880;12.630;2023-08-07T03:37:45;15.80;83.78
74968;SHT30;63523;51.880;12.630;2023-08-07T03:40:11;15.83;83.39
74968;SHT30;63523;51.880;12.630;2023-08-07T03:42:36;15.84;83.31
74968;SHT30;63523;51.880;12.630;2023-08-07T03:45:01;15.84;83.47
74968;SHT30;63523;51.880;12.630;2023-08-07T03:47:27;15.90;83.24
74968;SHT30;63523;51.880;12.630;2023-08-07T03:49:52;15.97;82.98
74968;SHT30;63523;51.880;12.630;2023-08-07T03:52:17;15.89;83.07
74968;SHT30;63523;51.880;12.630;2023-08-07T03:54:43;15.87;82.95
74968;SHT30;63523;51.880;12.630;2023-08-07T03:57:08;15.86;82.99
74968;SHT30;63523;51.880;12.630;2023-08-07T03:59:35;15.86;83.07
74968;SHT30;63523;51.880;12.630;2023-08-07T04:02:00;15.84;82.89
74968;SHT30;63523;51.880;12.630;2023-08-07T04:04:25;15.84;83.14
74968;SHT30;63523;51.880;12.630;2023-08-07T04:06:51;15.82;83.18
74968;SHT30;63523;51.880;12.630;2023-08-07T04:09:16;15.80;83.04
74968;SHT30;63523;51.880;12.630;2023-08-07T04:11:42;15.82;82.91
74968;SHT30;63523;51.880;12.630;2023-08-07T04:14:07;15.84;83.05
74968;SHT30;63523;51.880;12.630;2023-08-07T04:16:32;15.84;83.01
74968;SHT30;63523;51.880;12.630;2023-08-07T04:18:58;15.86;82.99
74968;SHT30;63523;51.880;12.630;2023-08-07T04:21:23;15.91;82.92
74968;SHT30;63523;51.880;12.630;2023-08-07T04:23:48;15.94;82.38
74968;SHT30;63523;51.880;12.630;2023-08-07T04:26:14;15.93;82.74
74968;SHT30;63523;51.880;12.630;2023-08-07T04:28:39;15.86;82.73
74968;SHT30;63523;51.880;12.630;2023-08-07T04:31:05;15.90;82.65
74968;SHT30;63523;51.880;12.630;2023-08-07T04:33:30;15.90;82.54
74968;SHT30;63523;51.880;12.630;2023-08-07T04:35:55;15.89;82.48
74968;SHT30;63523;51.880;12.630;2023-08-07T04:38:21;15.90;82.20
74968;SHT30;63523;51.880;12.630;2023-08-07T04:40:47;15.90;82.33
74968;SHT30;63523;51.880;12.630;2023-08-07T04:43:14;16.00;81.90
74968;SHT30;63523;51.880;12.630;2023-08-07T04:45:39;15.98;82.02
74968;SHT30;63523;51.880;12.630;2023-08-07T04:48:06;16.04;81.88
74968;SHT30;63523;51.880;12.630;2023-08-07T04:50:31;16.00;82.21
74968;SHT30;63523;51.880;12.630;2023-08-07T04:52:57;16.01;81.91
74968;SHT30;63523;51.880;12.630;2023-08-07T04:55:22;16.01;81.76
74968;SHT30;63523;51.880;12.630;2023-08-07T04:57:47;16.02;81.63
74968;SHT30;63523;51.880;12.630;2023-08-07T05:00:13;16.01;81.72
74968;SHT30;63523;51.880;12.630;2023-08-07T05:02:39;16.05;81.34
74968;SHT30;63523;51.880;12.630;2023-08-07T05:05:04;16.08;81.33
74968;SHT30;63523;51.880;12.630;2023-08-07T05:07:30;16.04;81.52
74968;SHT30;63523;51.880;12.630;2023-08-07T05:09:57;16.01;81.40
74968;SHT30;63523;51.880;12.630;2023-08-07T05:12:24;16.02;81.02
74968;SHT30;63523;51.880;12.630;2023-08-07T05:14:50;15.98;81.29
74968;SHT30;63523;51.880;12.630;2023-08-07T05:17:15;15.94;81.02
74968;SHT30;63523;51.880;12.630;2023-08-07T05:19:40;15.98;81.42
74968;SHT30;63523;51.880;12.630;2023-08-07T05:22:05;16.01;81.50
74968;SHT30;63523;51.880;12.630;2023-08-07T05:24:31;16.04;81.01
74968;SHT30;63523;51.880;12.630;2023-08-07T05:27:04;16.01;80.79
74968;SHT30;63523;51.880;12.630;2023-08-07T05:29:30;16.04;81.07
74968;SHT30;63523;51.880;12.630;2023-08-07T05:31:55;16.07;80.93
74968;SHT30;63523;51.880;12.630;2023-08-07T05:34:20;16.14;80.72
74968;SHT30;63523;51.880;12.630;2023-08-07T05:36:46;16.15;80.66
74968;SHT30;63523;51.880;12.630;2023-08-07T05:39:11;16.14;80.64
74968;SHT30;63523;51.880;12.630;2023-08-07T05:41:36;16.21;80.69
74968;SHT30;63523;51.880;12.630;2023-08-07T05:44:03;16.21;80.52
74968;SHT30;63523;51.880;12.630;2023-08-07T05:46:30;16.19;80.61
74968;SHT30;63523;51.880;12.630;2023-08-07T05:48:55;16.26;80.81
74968;SHT30;63523;51.880;12.630;2023-08-07T05:51:21;16.30;80.17
74968;SHT30;63523;51.880;12.630;2023-08-07T05:53:46;16.44;79.87
74968;SHT30;63523;51.880;12.630;2023-08-07T05:56:11;16.46;79.75
74968;SHT30;63523;51.880;12.630;2023-08-07T05:58:37;16.46;79.95
74968;SHT30;63523;51.880;12.630;2023-08-07T06:01:02;16.46;80.05
74968;SHT30;63523;51.880;12.630;2023-08-07T06:03:27;16.53;79.77
74968;SHT30;63523;51.880;12.630;2023-08-07T06:05:53;16.63;79.56
74968;SHT30;63523;51.880;12.630;2023-08-07T06:08:18;16.77;79.26
74968;SHT30;63523;51.880;12.630;2023-08-07T06:10:44;16.83;79.10
74968;SHT30;63523;51.880;12.630;2023-08-07T06:13:09;16.85;78.97
74968;SHT30;63523;51.880;12.630;2023-08-07T06:15:34;16.87;78.71
74968;SHT30;63523;51.880;12.630;2023-08-07T06:18:00;16.93;78.77
74968;SHT30;63523;51.880;12.630;2023-08-07T06:20:25;16.95;78.51
74968;SHT30;63523;51.880;12.630;2023-08-07T06:22:50;17.07;78.50
74968;SHT30;63523;51.880;12.630;2023-08-07T06:25:16;17.22;77.87
74968;SHT30;63523;51.880;12.630;2023-08-07T06:27:41;17.39;77.04
74968;SHT30;63523;51.880;12.630;2023-08-07T06:30:07;17.49;77.25
74968;SHT30;63523;51.880;12.630;2023-08-07T06:32:33;17.50;76.32
74968;SHT30;63523;51.880;12.630;2023-08-07T06:34:58;17.43;76.81
74968;SHT30;63523;51.880;12.630;2023-08-07T06:37:24;17.45;76.90
74968;SHT30;63523;51.880;12.630;2023-08-07T06:39:49;17.39;76.54
74968;SHT30;63523;51.880;12.630;2023-08-07T06:42:14;17.35;76.82
74968;SHT30;63523;51.880;12.630;2023-08-07T06:44:40;17.34;77.16
74968;SHT30;63523;51.880;12.630;2023-08-07T06:47:05;17.34;76.85
74968;SHT30;63523;51.880;12.630;2023-08-07T06:49:31;17.46;76.66
74968;SHT30;63523;51.880;12.630;2023-08-07T06:51:58;17.39;75.96
74968;SHT30;63523;51.880;12.630;2023-08-07T06:54:23;17.34;76.13
74968;SHT30;63523;51.880;12.630;2023-08-07T06:56:49;17.38;76.13
74968;SHT30;63523;51.880;12.630;2023-08-07T06:59:14;17.34;76.28
74968;SHT30;63523;51.880;12.630;2023-08-07T07:01:39;17.36;76.24
74968;SHT30;63523;51.880;12.630;2023-08-07T07:04:05;17.40;75.68
74968;SHT30;63523;51.880;12.630;2023-08-07T07:06:30;17.39;75.29
74968;SHT30;63523;51.880;12.630;2023-08-07T07:08:56;17.29;76.01
74968;SHT30;63523;51.880;12.630;2023-08-07T07:11:22;17.28;75.87
74968;SHT30;63523;51.880;12.630;2023-08-07T07:13:49;17.28;76.31
74968;SHT30;63523;51.880;12.630;2023-08-07T07:16:16;17.29;76.20
74968;SHT30;63523;51.880;12.630;2023-08-07T07:18:41;17.47;75.57
74968;SHT30;63523;51.880;12.630;2023-08-07T07:21:07;17.43;75.55
74968;SHT30;63523;51.880;12.630;2023-08-07T07:23:32;17.49;75.52
74968;SHT30;63523;51.880;12.630;2023-08-07T07:25:57;17.50;75.30
74968;SHT30;63523;51.880;12.630;2023-08-07T07:28:23;17.45;74.54
74968;SHT30;63523;51.880;12.630;2023-08-07T07:30:51;17.42;74.45
74968;SHT30;63523;51.880;12.630;2023-08-07T07:33:17;17.43;74.47
74968;SHT30;63523;51.880;12.630;2023-08-07T07:35:42;17.50;74.06
74968;SHT30;63523;51.880;12.630;2023-08-07T07:38:09;17.50;74.33
74968;SHT30;63523;51.880;12.630;2023-08-07T07:40:35;17.56;74.90
74968;SHT30;63523;51.880;12.630;2023-08-07T07:43:00;17.63;74.61
74968;SHT30;63523;51.880;12.630;2023-08-07T07:45:26;17.65;74.28
74968;SHT30;63523;51.880;12.630;2023-08-07T07:47:51;17.67;74.12
74968;SHT30;63523;51.880;12.630;2023-08-07T07:50:16;17.66;73.69
74968;SHT30;63523;51.880;12.630;2023-08-07T07:52:42;17.79;73.73
74968;SHT30;63523;51.880;12.630;2023-08-07T07:55:09;17.69;73.60
74968;SHT30;63523;51.880;12.630;2023-08-07T07:57:34;17.72;73.73
74968;SHT30;63523;51.880;12.630;2023-08-07T08:00:00;17.66;73.64
74968;SHT30;63523;51.880;12.630;2023-08-07T08:02:26;17.63;73.62
74968;SHT30;63523;51.880;12.630;2023-08-07T08:04:51;17.66;73.94
74968;SHT30;63523;51.880;12.630;2023-08-07T08:07:17;17.73;74.54
74968;SHT30;63523;51.880;12.630;2023-08-07T08:09:43;17.74;73.70
74968;SHT30;63523;51.880;12.630;2023-08-07T08:12:09;17.72;73.37
74968;SHT30;63523;51.880;12.630;2023-08-07T08:14:34;17.74;73.71
74968;SHT30;63523;51.880;12.630;2023-08-07T08:17:00;17.80;73.24
74968;SHT30;63523;51.880;12.630;2023-08-07T08:19:25;17.89;72.97
74968;SHT30;63523;51.880;12.630;2023-08-07T08:21:50;17.89;72.51
74968;SHT30;63523;51.880;12.630;2023-08-07T08:24:15;17.96;73.05
74968;SHT30;63523;51.880;12.630;2023-08-07T08:26:41;18.08;71.63
74968;SHT30;63523;51.880;12.630;2023-08-07T08:29:06;18.22;71.11
74968;SHT30;63523;51.880;12.630;2023-08-07T08:31:33;18.11;71.18
74968;SHT30;63523;51.880;12.630;2023-08-07T08:33:59;18.22;71.11
74968;SHT30;63523;51.880;12.630;2023-08-07T08:36:24;18.28;70.33
74968;SHT30;63523;51.880;12.630;2023-08-07T08:38:49;18.45;70.07
74968;SHT30;63523;51.880;12.630;2023-08-07T08:41:16;18.45;70.68
74968;SHT30;63523;51.880;12.630;2023-08-07T08:43:44;18.49;70.84
74968;SHT30;63523;51.880;12.630;2023-08-07T08:46:12;18.72;70.35
74968;SHT30;63523;51.880;12.630;2023-08-07T08:48:40;18.83;69.21
74968;SHT30;63523;51.880;12.630;2023-08-07T08:51:06;18.80;69.61
74968;SHT30;63523;51.880;12.630;2023-08-07T08:53:33;18.74;69.42
74968;SHT30;63523;51.880;12.630;2023-08-07T08:56:00;18.83;69.57
74968;SHT30;63523;51.880;12.630;2023-08-07T08:58:27;19.08;69.73
74968;SHT30;63523;51.880;12.630;2023-08-07T09:00:53;19.19;69.55
74968;SHT30;63523;51.880;12.630;2023-08-07T09:03:19;19.35;69.50
74968;SHT30;63523;51.880;12.630;2023-08-07T09:05:45;19.21;68.61
74968;SHT30;63523;51.880;12.630;2023-08-07T09:08:11;19.15;67.34
74968;SHT30;63523;51.880;12.630;2023-08-07T09:10:37;19.10;67.96
74968;SHT30;63523;51.880;12.630;2023-08-07T09:13:04;19.19;68.17
74968;SHT30;63523;51.880;12.630;2023-08-07T09:15:32;19.18;68.08
74968;SHT30;63523;51.880;12.630;2023-08-07T09:17:58;19.25;68.26
74968;SHT30;63523;51.880;12.630;2023-08-07T09:20:27;19.34;65.96
74968;SHT30;63523;51.880;12.630;2023-08-07T09:22:53;19.11;67.09
74968;SHT30;63523;51.880;12.630;2023-08-07T09:25:27;19.06;66.96
74968;SHT30;63523;51.880;12.630;2023-08-07T09:27:52;19.17;66.84
74968;SHT30;63523;51.880;12.630;2023-08-07T09:30:19;19.11;67.34
74968;SHT30;63523;51.880;12.630;2023-08-07T09:32:47;19.24;66.87
74968;SHT30;63523;51.880;12.630;2023-08-07T09:35:12;19.24;65.25
74968;SHT30;63523;51.880;12.630;2023-08-07T09:37:38;19.18;65.24
74968;SHT30;63523;51.880;12.630;2023-08-07T09:40:04;19.19;66.26
74968;SHT30;63523;51.880;12.630;2023-08-07T09:42:32;19.28;67.42
74968;SHT30;63523;51.880;12.630;2023-08-07T09:45:00;19.29;64.93
74968;SHT30;63523;51.880;12.630;2023-08-07T09:47:25;19.32;64.90
74968;SHT30;63523;51.880;12.630;2023-08-07T09:49:54;19.39;65.28
74968;SHT30;63523;51.880;12.630;2023-08-07T09:52:19;19.49;64.19
74968;SHT30;63523;51.880;12.630;2023-08-07T09:54:44;19.53;63.98
74968;SHT30;63523;51.880;12.630;2023-08-07T09:57:10;19.66;65.46
74968;SHT30;63523;51.880;12.630;2023-08-07T09:59:35;19.72;64.24
74968;SHT30;63523;51.880;12.630;2023-08-07T10:02:02;19.83;64.50
74968;SHT30;63523;51.880;12.630;2023-08-07T10:04:28;19.87;64.41
74968;SHT30;63523;51.880;12.630;2023-08-07T10:06:54;19.87;65.44
74968;SHT30;63523;51.880;12.630;2023-08-07T10:09:20;19.83;63.36
74968;SHT30;63523;51.880;12.630;2023-08-07T10:11:46;19.76;63.91
74968;SHT30;63523;51.880;12.630;2023-08-07T10:14:13;20.03;63.85
74968;SHT30;63523;51.880;12.630;2023-08-07T10:16:39;20.35;62.04
74968;SHT30;63523;51.880;12.630;2023-08-07T10:19:06;20.56;61.68
74968;SHT30;63523;51.880;12.630;2023-08-07T10:21:35;20.69;59.95
74968;SHT30;63523;51.880;12.630;2023-08-07T10:24:03;20.63;59.86
74968;SHT30;63523;51.880;12.630;2023-08-07T10:26:29;20.73;61.32
74968;SHT30;63523;51.880;12.630;2023-08-07T10:28:55;20.69;60.60
74968;SHT30;63523;51.880;12.630;2023-08-07T10:31:22;20.42;60.71
74968;SHT30;63523;51.880;12.630;2023-08-07T10:33:48;20.28;62.10
74968;SHT30;63523;51.880;12.630;2023-08-07T10:36:16;20.14;62.96
74968;SHT30;63523;51.880;12.630;2023-08-07T10:38:42;20.28;63.52
74968;SHT30;63523;51.880;12.630;2023-08-07T10:41:13;20.57;62.28
74968;SHT30;63523;51.880;12.630;2023-08-07T10:43:43;20.62;61.22
74968;SHT30;63523;51.880;12.630;2023-08-07T10:46:09;20.61;61.88
74968;SHT30;63523;51.880;12.630;2023-08-07T10:48:39;20.45;60.13
74968;SHT30;63523;51.880;12.630;2023-08-07T10:51:05;20.39;60.60
74968;SHT30;63523;51.880;12.630;2023-08-07T10:53:35;20.34;60.29
74968;SHT30;63523;51.880;12.630;2023-08-07T10:56:02;20.26;59.93
74968;SHT30;63523;51.880;12.630;2023-08-07T10:58:33;20.25;59.53
74968;SHT30;63523;51.880;12.630;2023-08-07T11:03:59;20.56;59.20
74968;SHT30;63523;51.880;12.630;2023-08-07T11:06:27;20.59;59.19
74968;SHT30;63523;51.880;12.630;2023-08-07T11:08:54;20.35;59.51
74968;SHT30;63523;51.880;12.630;2023-08-07T11:11:19;20.34;60.48
74968;SHT30;63523;51.880;12.630;2023-08-07T11:13:45;20.57;59.92
74968;SHT30;63523;51.880;12.630;2023-08-07T11:16:11;21.15;59.65
74968;SHT30;63523;51.880;12.630;2023-08-07T11:18:37;21.48;57.88
74968;SHT30;63523;51.880;12.630;2023-08-07T11:21:07;21.15;57.56
74968;SHT30;63523;51.880;12.630;2023-08-07T11:23:32;20.93;58.35
74968;SHT30;63523;51.880;12.630;2023-08-07T11:25:57;20.84;59.08
74968;SHT30;63523;51.880;12.630;2023-08-07T11:28:23;20.70;58.17
74968;SHT30;63523;51.880;12.630;2023-08-07T11:30:52;20.62;59.23
74968;SHT30;63523;51.880;12.630;2023-08-07T11:33:18;20.44;58.77
74968;SHT30;63523;51.880;12.630;2023-08-07T11:35:44;20.79;58.67
74968;SHT30;63523;51.880;12.630;2023-08-07T11:38:10;21.48;56.44
74968;SHT30;63523;51.880;12.630;2023-08-07T11:40:35;21.73;53.31
74968;SHT30;63523;51.880;12.630;2023-08-07T11:43:01;21.24;55.47
74968;SHT30;63523;51.880;12.630;2023-08-07T11:45:27;20.39;67.96
74968;SHT30;63523;51.880;12.630;2023-08-07T11:47:52;18.84;71.25
74968;SHT30;63523;51.880;12.630;2023-08-07T11:50:21;17.74;76.51
74968;SHT30;63523;51.880;12.630;2023-08-07T11:52:47;17.31;78.66
74968;SHT30;63523;51.880;12.630;2023-08-07T11:55:14;17.21;81.61
74968;SHT30;63523;51.880;12.630;2023-08-07T11:57:39;17.31;81.96
74968;SHT30;63523;51.880;12.630;2023-08-07T12:00:09;17.25;80.41
74968;SHT30;63523;51.880;12.630;2023-08-07T12:02:44;17.24;81.89
74968;SHT30;63523;51.880;12.630;2023-08-07T12:05:10;17.35;81.71
74968;SHT30;63523;51.880;12.630;2023-08-07T12:07:37;17.50;79.53
74968;SHT30;63523;51.880;12.630;2023-08-07T12:10:11;17.56;79.82
74968;SHT30;63523;51.880;12.630;2023-08-07T12:12:37;17.56;76.55
74968;SHT30;63523;51.880;12.630;2023-08-07T12:15:06;17.47;75.04
74968;SHT30;63523;51.880;12.630;2023-08-07T12:17:32;17.50;76.19
74968;SHT30;63523;51.880;12.630;2023-08-07T12:19:58;17.49;76.98
74968;SHT30;63523;51.880;12.630;2023-08-07T12:22:23;17.55;77.29
74968;SHT30;63523;51.880;12.630;2023-08-07T12:24:49;17.61;76.29
74968;SHT30;63523;51.880;12.630;2023-08-07T12:27:14;17.62;75.55
74968;SHT30;63523;51.880;12.630;2023-08-07T12:29:39;17.67;76.02
74968;SHT30;63523;51.880;12.630;2023-08-07T12:32:05;17.76;76.73
74968;SHT30;63523;51.880;12.630;2023-08-07T12:34:30;17.87;75.79
74968;SHT30;63523;51.880;12.630;2023-08-07T12:36:56;18.07;73.38
74968;SHT30;63523;51.880;12.630;2023-08-07T12:39:21;18.15;72.70
74968;SHT30;63523;51.880;12.630;2023-08-07T12:41:46;18.11;72.84
74968;SHT30;63523;51.880;12.630;2023-08-07T12:44:13;18.14;73.67
74968;SHT30;63523;51.880;12.630;2023-08-07T12:46:38;18.24;72.87
74968;SHT30;63523;51.880;12.630;2023-08-07T12:49:05;18.32;74.04
74968;SHT30;63523;51.880;12.630;2023-08-07T12:51:32;18.51;73.30
74968;SHT30;63523;51.880;12.630;2023-08-07T12:53:57;18.63;72.96
74968;SHT30;63523;51.880;12.630;2023-08-07T12:56:22;18.81;72.26
74968;SHT30;63523;51.880;12.630;2023-08-07T12:58:48;18.99;69.89
74968;SHT30;63523;51.880;12.630;2023-08-07T13:01:15;19.06;68.55
74968;SHT30;63523;51.880;12.630;2023-08-07T13:03:40;19.03;67.52
74968;SHT30;63523;51.880;12.630;2023-08-07T13:06:05;19.00;68.65
74968;SHT30;63523;51.880;12.630;2023-08-07T13:08:33;19.18;69.38
74968;SHT30;63523;51.880;12.630;2023-08-07T13:11:00;19.07;67.10
74968;SHT30;63523;51.880;12.630;2023-08-07T13:13:25;18.76;67.30
74968;SHT30;63523;51.880;12.630;2023-08-07T13:15:53;18.55;69.59
74968;SHT30;63523;51.880;12.630;2023-08-07T13:18:18;18.45;70.11
74968;SHT30;63523;51.880;12.630;2023-08-07T13:20:43;18.21;69.91
74968;SHT30;63523;51.880;12.630;2023-08-07T13:23:09;17.91;70.17
74968;SHT30;63523;51.880;12.630;2023-08-07T13:25:34;17.90;71.66
74968;SHT30;63523;51.880;12.630;2023-08-07T13:28:00;17.87;72.04
74968;SHT30;63523;51.880;12.630;2023-08-07T13:30:26;18.10;70.76
74968;SHT30;63523;51.880;12.630;2023-08-07T13:32:51;18.45;68.60
74968;SHT30;63523;51.880;12.630;2023-08-07T13:35:16;18.64;68.06
74968;SHT30;63523;51.880;12.630;2023-08-07T13:37:41;18.94;66.78
74968;SHT30;63523;51.880;12.630;2023-08-07T13:40:07;18.99;66.41
74968;SHT30;63523;51.880;12.630;2023-08-07T13:42:33;18.96;66.34
74968;SHT30;63523;51.880;12.630;2023-08-07T13:44:59;19.00;69.32
74968;SHT30;63523;51.880;12.630;2023-08-07T13:47:24;19.04;67.33
74968;SHT30;63523;51.880;12.630;2023-08-07T13:49:51;18.87;67.75
74968;SHT30;63523;51.880;12.630;2023-08-07T13:52:18;18.81;67.85
74968;SHT30;63523;51.880;12.630;2023-08-07T13:54:43;18.60;68.67
74968;SHT30;63523;51.880;12.630;2023-08-07T13:57:08;18.45;68.73
74968;SHT30;63523;51.880;12.630;2023-08-07T13:59:33;18.28;68.39
74968;SHT30;63523;51.880;12.630;2023-08-07T14:01:59;18.14;67.18
74968;SHT30;63523;51.880;12.630;2023-08-07T14:04:24;18.07;68.05
74968;SHT30;63523;51.880;12.630;2023-08-07T14:06:50;18.19;68.05
74968;SHT30;63523;51.880;12.630;2023-08-07T14:09:15;18.31;68.43
74968;SHT30;63523;51.880;12.630;2023-08-07T14:11:42;18.42;67.78
74968;SHT30;63523;51.880;12.630;2023-08-07T14:14:07;18.62;67.35
74968;SHT30;63523;51.880;12.630;2023-08-07T14:16:32;18.79;67.32
74968;SHT30;63523;51.880;12.630;2023-08-07T14:18:57;18.96;65.31
74968;SHT30;63523;51.880;12.630;2023-08-07T14:21:23;19.24;64.22
74968;SHT30;63523;51.880;12.630;2023-08-07T14:23:48;19.35;61.81
74968;SHT30;63523;51.880;12.630;2023-08-07T14:26:15;19.52;62.40
74968;SHT30;63523;51.880;12.630;2023-08-07T14:28:41;19.67;61.61
74968;SHT30;63523;51.880;12.630;2023-08-07T14:31:08;19.65;59.59
74968;SHT30;63523;51.880;12.630;2023-08-07T14:33:33;19.61;61.94
74968;SHT30;63523;51.880;12.630;2023-08-07T14:35:59;19.58;59.44
74968;SHT30;63523;51.880;12.630;2023-08-07T14:38:25;19.77;59.26
74968;SHT30;63523;51.880;12.630;2023-08-07T14:40:50;19.84;58.15
74968;SHT30;63523;51.880;12.630;2023-08-07T14:43:16;19.76;57.54
74968;SHT30;63523;51.880;12.630;2023-08-07T14:45:41;19.67;58.97
74968;SHT30;63523;51.880;12.630;2023-08-07T14:48:06;19.89;58.55
74968;SHT30;63523;51.880;12.630;2023-08-07T14:50:32;19.90;56.14
74968;SHT30;63523;51.880;12.630;2023-08-07T14:52:57;19.90;58.17
74968;SHT30;63523;51.880;12.630;2023-08-07T14:55:22;19.84;58.74
74968;SHT30;63523;51.880;12.630;2023-08-07T14:57:48;19.58;57.76
74968;SHT30;63523;51.880;12.630;2023-08-07T15:00:14;19.48;59.18
74968;SHT30;63523;51.880;12.630;2023-08-07T15:02:39;19.35;59.49
74968;SHT30;63523;51.880;12.630;2023-08-07T15:05:06;19.22;60.04
74968;SHT30;63523;51.880;12.630;2023-08-07T15:07:31;19.38;59.27
74968;SHT30;63523;51.880;12.630;2023-08-07T15:09:57;19.46;57.47